createdAt,value
2022-09-04T00:01:15.309Z,4.88
2022-09-04T00:03:53.304Z,4.22
2022-09-04T00:06:29.641Z,3.60
2022-09-04T00:09:07.954Z,3.97
2022-09-04T00:11:46.236Z,4.78
2022-09-04T00:14:17.619Z,4.57
2022-09-04T00:16:51.142Z,5.45
2022-09-04T00:19:28.744Z,5.15
2022-09-04T00:22:00.465Z,6.00
2022-09-04T00:24:33.060Z,5.03
2022-09-04T00:27:06.471Z,6.10
2022-09-04T00:29:41.740Z,5.97
2022-09-04T00:32:18.983Z,5.90
2022-09-04T00:35:05.033Z,5.43
2022-09-04T00:37:37.178Z,7.05
2022-09-04T00:40:09.729Z,6.45
2022-09-04T00:43:06.722Z,6.65
2022-09-04T00:45:54.146Z,6.55
2022-09-04T00:48:41.934Z,5.77
2022-09-04T00:51:17.973Z,5.78
2022-09-04T00:54:02.563Z,5.47
2022-09-04T00:56:53.695Z,5.60
2022-09-04T00:59:39.304Z,5.13
2022-09-04T01:02:13.695Z,5.50
2022-09-04T01:04:44.122Z,4.68
2022-09-04T01:07:27.981Z,4.97
2022-09-04T01:10:19.225Z,4.82
2022-09-04T01:12:50.790Z,4.88
2022-09-04T01:15:25.100Z,5.10
2022-09-04T01:18:04.024Z,4.05
2022-09-04T01:20:56.030Z,3.85
2022-09-04T01:23:37.299Z,3.63
2022-09-04T01:26:14.951Z,3.30
2022-09-04T01:28:53.695Z,4.53
2022-09-04T01:31:27.806Z,4.20
2022-09-04T01:34:09.565Z,3.97
2022-09-04T01:36:43.041Z,5.40
2022-09-04T01:39:10.857Z,5.57
2022-09-04T01:41:44.693Z,6.33
2022-09-04T01:44:13.988Z,5.40
2022-09-04T01:47:01.336Z,5.35
2022-09-04T01:49:36.631Z,4.22
2022-09-04T01:52:13.783Z,5.10
2022-09-04T01:54:53.841Z,5.13
2022-09-04T01:57:43.904Z,5.20
2022-09-04T02:00:13.876Z,7.38
2022-09-04T02:02:55.180Z,7.07
2022-09-04T02:05:31.188Z,6.85
2022-09-04T02:08:11.329Z,6.83
2022-09-04T02:10:46.138Z,6.85
2022-09-04T02:13:23.148Z,7.63
2022-09-04T02:16:04.558Z,6.80
2022-09-04T02:18:45.620Z,6.25
2022-09-04T02:21:22.152Z,7.20
2022-09-04T02:23:58.652Z,7.00
2022-09-04T02:26:31.821Z,7.25
2022-09-04T02:29:08.654Z,7.25
2022-09-04T02:31:45.501Z,6.57
2022-09-04T02:34:22.003Z,6.83
2022-09-04T02:36:57.091Z,5.40
2022-09-04T02:39:45.331Z,5.05
2022-09-04T02:42:21.065Z,5.68
2022-09-04T02:45:04.005Z,6.22
2022-09-04T02:47:39.863Z,6.00
2022-09-04T02:50:18.115Z,6.40
2022-09-04T02:52:56.979Z,6.40
2022-09-04T02:55:36.010Z,5.57
2022-09-04T02:58:25.940Z,5.60
2022-09-04T03:01:06.296Z,5.40
2022-09-04T03:03:41.346Z,5.07
2022-09-04T03:06:11.544Z,5.05
2022-09-04T03:08:45.298Z,4.35
2022-09-04T03:11:19.122Z,4.45
2022-09-04T03:13:52.826Z,4.87
2022-09-04T03:16:25.764Z,5.10
2022-09-04T03:19:02.961Z,5.68
2022-09-04T03:21:36.726Z,5.93
2022-09-04T03:24:08.512Z,6.88
2022-09-04T03:26:38.390Z,5.77
2022-09-04T03:29:15.665Z,5.20
2022-09-04T03:31:52.452Z,5.72
2022-09-04T03:34:41.303Z,5.88
2022-09-04T03:37:47.523Z,5.15
2022-09-04T03:40:25.879Z,5.93
2022-09-04T03:43:10.050Z,5.90
2022-09-04T03:45:50.724Z,5.35
2022-09-04T03:48:32.155Z,5.38
2022-09-04T03:51:07.888Z,5.50
2022-09-04T03:53:42.805Z,5.43
2022-09-04T03:56:33.419Z,6.13
2022-09-04T03:59:07.846Z,5.63
2022-09-04T04:01:46.641Z,6.47
2022-09-04T04:04:40.058Z,6.07
2022-09-04T04:07:17.742Z,5.97
2022-09-04T04:09:59.860Z,6.00
2022-09-04T04:13:05.382Z,5.55
2022-09-04T04:15:47.427Z,5.70
2022-09-04T04:18:35.010Z,5.97
2022-09-04T04:21:10.485Z,5.57
2022-09-04T04:24:15.768Z,5.25
2022-09-04T04:27:07.093Z,6.38
2022-09-04T04:29:48.323Z,5.72
2022-09-04T04:32:29.453Z,5.90
2022-09-04T04:35:16.588Z,5.77
2022-09-04T04:37:59.312Z,6.22
2022-09-04T04:40:41.249Z,5.72
2022-09-04T04:43:16.200Z,5.93
2022-09-04T04:45:52.677Z,5.30
2022-09-04T04:48:51.526Z,5.47
2022-09-04T04:51:40.667Z,5.32
2022-09-04T04:54:23.389Z,5.65
2022-09-04T04:56:58.625Z,5.55
2022-09-04T04:59:31.747Z,4.38
2022-09-04T05:02:07.889Z,5.33
2022-09-04T05:04:46.000Z,5.60
2022-09-04T05:07:25.383Z,5.22
2022-09-04T05:09:59.956Z,5.35
2022-09-04T05:12:38.898Z,5.53
2022-09-04T05:15:14.293Z,4.73
2022-09-04T05:17:50.826Z,4.97
2022-09-04T05:20:30.529Z,5.07
2022-09-04T05:23:11.860Z,4.78
2022-09-04T05:25:47.127Z,4.82
2022-09-04T05:28:28.194Z,4.30
2022-09-04T05:31:05.726Z,4.57
2022-09-04T05:33:40.895Z,4.85
2022-09-04T05:36:17.813Z,4.53
2022-09-04T05:38:58.313Z,4.53
2022-09-04T05:41:39.460Z,5.13
2022-09-04T05:44:19.924Z,4.72
2022-09-04T05:46:59.333Z,4.50
2022-09-04T05:49:43.638Z,3.47
2022-09-04T05:52:26.755Z,3.53
2022-09-04T05:55:13.767Z,3.90
2022-09-04T05:57:58.009Z,4.00
2022-09-04T06:00:32.400Z,3.55
2022-09-04T06:03:29.485Z,4.25
2022-09-04T06:06:17.756Z,4.53
2022-09-04T06:09:18.568Z,4.17
2022-09-04T06:12:06.436Z,4.70
2022-09-04T06:14:54.462Z,4.25
2022-09-04T06:17:32.693Z,4.65
2022-09-04T06:20:24.340Z,5.00
2022-09-04T06:23:04.671Z,5.67
2022-09-04T06:25:58.610Z,5.50
2022-09-04T06:28:47.378Z,5.05
2022-09-04T06:31:51.670Z,5.22
2022-09-04T06:34:30.330Z,4.90
2022-09-04T06:37:08.237Z,5.27
2022-09-04T06:39:51.956Z,5.38
2022-09-04T06:42:37.398Z,4.50
2022-09-04T06:45:20.575Z,4.40
2022-09-04T06:48:06.184Z,4.47
2022-09-04T06:50:44.994Z,4.33
2022-09-04T06:53:32.424Z,3.90
2022-09-04T06:56:11.589Z,4.45
2022-09-04T06:59:07.055Z,4.65
2022-09-04T07:01:42.698Z,4.65
2022-09-04T07:04:25.841Z,5.00
2022-09-04T07:07:03.012Z,5.35
2022-09-04T07:09:36.335Z,5.55
2022-09-04T07:12:23.933Z,4.95
2022-09-04T07:15:36.768Z,5.63
2022-09-04T07:18:16.015Z,5.37
2022-09-04T07:20:56.859Z,5.90
2022-09-04T07:23:36.101Z,5.30
2022-09-04T07:26:13.495Z,4.75
2022-09-04T07:29:06.957Z,4.97
2022-09-04T07:31:39.732Z,5.07
2022-09-04T07:34:17.308Z,4.75
2022-09-04T07:36:54.206Z,5.72
2022-09-04T07:39:27.595Z,5.20
2022-09-04T07:42:05.910Z,5.70
2022-09-04T07:44:40.977Z,5.73
2022-09-04T07:47:14.422Z,5.70
2022-09-04T07:49:50.655Z,6.35
2022-09-04T07:52:31.059Z,5.85
2022-09-04T07:55:23.695Z,6.50
2022-09-04T07:58:08.888Z,5.83
2022-09-04T08:00:45.088Z,6.78
2022-09-04T08:03:54.281Z,6.38
2022-09-04T08:06:28.868Z,6.35
2022-09-04T08:09:13.652Z,6.57
2022-09-04T08:11:54.409Z,6.33
2022-09-04T08:14:29.644Z,6.00
2022-09-04T08:17:38.932Z,7.43
2022-09-04T08:20:14.510Z,6.32
2022-09-04T08:22:50.006Z,6.60
2022-09-04T08:25:29.586Z,7.63
2022-09-04T08:28:17.603Z,7.10
2022-09-04T08:30:55.610Z,7.40
2022-09-04T08:34:03.622Z,6.47
2022-09-04T08:36:42.227Z,7.18
2022-09-04T08:39:14.652Z,6.70
2022-09-04T08:42:15.204Z,6.93
2022-09-04T08:45:42.095Z,6.38
2022-09-04T08:48:49.233Z,6.38
2022-09-04T08:52:10.721Z,7.07
2022-09-04T08:55:14.314Z,8.07
2022-09-04T08:58:11.537Z,7.28
2022-09-04T09:00:57.824Z,8.45
2022-09-04T09:04:09.840Z,7.43
2022-09-04T09:07:08.320Z,6.85
2022-09-04T09:10:03.755Z,8.30
2022-09-04T09:13:15.891Z,7.80
2022-09-04T09:15:56.495Z,7.40
2022-09-04T09:18:40.681Z,6.85
2022-09-04T09:21:11.614Z,6.63
2022-09-04T09:23:55.209Z,7.73
2022-09-04T09:26:28.326Z,7.20
2022-09-04T09:29:29.547Z,6.75
2022-09-04T09:32:39.747Z,6.65
2022-09-04T09:35:47.911Z,7.40
2022-09-04T09:38:48.672Z,7.97
2022-09-04T09:41:53.744Z,7.63
2022-09-04T09:44:54.749Z,5.90
2022-09-04T09:48:11.674Z,5.78
2022-09-04T09:51:38.988Z,6.85
2022-09-04T09:54:26.508Z,7.67
2022-09-04T09:57:52.278Z,6.53
2022-09-04T10:00:24.020Z,7.47
2022-09-04T10:03:34.311Z,8.02
2022-09-04T10:06:20.668Z,6.28
2022-09-04T10:09:25.206Z,7.50
2022-09-04T10:12:30.053Z,7.03
2022-09-04T10:15:28.538Z,5.65
2022-09-04T10:18:24.478Z,6.28
2022-09-04T10:21:20.869Z,5.75
2022-09-04T10:24:21.594Z,5.60
2022-09-04T10:27:21.760Z,7.28
2022-09-04T10:30:08.759Z,6.78
2022-09-04T10:33:07.948Z,7.20
2022-09-04T10:35:54.879Z,6.10
2022-09-04T10:42:16.735Z,8.02
2022-09-04T10:44:53.729Z,6.00
2022-09-04T10:47:38.512Z,7.68
2022-09-04T10:50:21.754Z,7.22
2022-09-04T10:53:25.520Z,6.90
2022-09-04T10:56:06.267Z,7.30
2022-09-04T10:58:45.022Z,5.68
2022-09-04T11:01:44.394Z,5.72
2022-09-04T11:04:35.585Z,6.55
2022-09-04T11:07:49.370Z,6.93
2022-09-04T11:10:35.490Z,6.78
2022-09-04T11:13:29.110Z,5.50
2022-09-04T11:16:19.969Z,5.07
2022-09-04T11:19:14.540Z,5.72
2022-09-04T11:22:24.664Z,5.33
2022-09-04T11:25:25.819Z,6.38
2022-09-04T11:28:08.160Z,5.45
2022-09-04T11:31:11.629Z,4.25
2022-09-04T11:34:21.120Z,4.05
2022-09-04T11:37:08.410Z,3.53
2022-09-04T11:40:06.475Z,3.58
2022-09-04T11:42:45.754Z,3.83
2022-09-04T11:45:42.381Z,3.83
2022-09-04T11:48:49.438Z,3.10
2022-09-04T11:51:41.863Z,3.30
2022-09-04T11:54:29.768Z,2.97
2022-09-04T11:57:14.518Z,2.90
2022-09-04T12:00:06.072Z,3.60
2022-09-04T12:03:06.576Z,2.53
2022-09-04T12:05:47.755Z,3.07
2022-09-04T12:08:29.022Z,2.17
2022-09-04T12:11:19.167Z,1.85
2022-09-04T12:13:58.667Z,1.90
2022-09-04T12:17:15.509Z,1.95
2022-09-04T12:20:17.126Z,2.07
2022-09-04T12:23:30.461Z,2.05
2022-09-04T12:26:17.928Z,1.90
2022-09-04T12:29:22.045Z,2.08
2022-09-04T12:32:14.989Z,1.92
2022-09-04T12:35:11.027Z,3.30
2022-09-04T12:37:57.718Z,2.20
2022-09-04T12:40:47.185Z,1.60
2022-09-04T12:43:32.191Z,1.90
2022-09-04T12:46:14.453Z,1.90
2022-09-04T12:48:50.875Z,1.80
2022-09-04T12:51:25.192Z,1.80
2022-09-04T12:54:15.491Z,1.88
2022-09-04T12:56:53.199Z,1.88
2022-09-04T12:59:37.064Z,1.52
2022-09-04T13:02:12.411Z,1.80
2022-09-04T13:04:55.535Z,1.70
2022-09-04T13:07:34.493Z,1.98
2022-09-04T13:10:14.134Z,1.60
2022-09-04T13:12:49.487Z,1.60
2022-09-04T13:15:28.387Z,1.40
2022-09-04T13:18:09.596Z,1.40
2022-09-04T13:20:50.708Z,1.38
2022-09-04T13:23:37.144Z,1.30
2022-09-04T13:26:21.729Z,1.63
2022-09-04T13:28:59.643Z,1.40
2022-09-04T13:32:04.432Z,1.40
2022-09-04T13:34:44.675Z,1.38
2022-09-04T13:37:21.367Z,1.52
2022-09-04T13:40:13.348Z,1.63
2022-09-04T13:43:15.479Z,1.60
2022-09-04T13:45:48.340Z,1.60
2022-09-04T13:48:33.049Z,1.50
2022-09-04T13:51:11.383Z,1.77
2022-09-04T13:53:55.385Z,1.50
2022-09-04T13:56:29.436Z,1.70
2022-09-04T13:59:01.868Z,1.40
2022-09-04T14:01:33.592Z,1.40
2022-09-04T14:04:07.849Z,1.00
2022-09-04T14:06:38.131Z,1.08
2022-09-04T14:09:07.109Z,1.10
2022-09-04T14:11:56.847Z,1.20
2022-09-04T14:15:00.080Z,1.20
2022-09-04T14:17:38.407Z,1.10
2022-09-04T14:20:21.823Z,1.10
2022-09-04T14:22:59.055Z,1.27
2022-09-04T14:25:33.487Z,1.08
2022-09-04T14:28:07.990Z,0.95
2022-09-04T14:30:45.809Z,1.40
2022-09-04T14:33:28.449Z,1.20
2022-09-04T14:36:14.962Z,1.00
2022-09-04T14:38:56.960Z,1.30
2022-09-04T14:41:38.297Z,1.10
2022-09-04T14:44:16.774Z,1.13
2022-09-04T14:46:56.177Z,0.93
2022-09-04T14:49:32.028Z,7.80
2022-09-04T14:52:11.632Z,2.45
2022-09-04T14:54:46.312Z,1.45
2022-09-04T14:57:19.168Z,1.38
2022-09-04T14:59:57.222Z,1.30
2022-09-04T15:02:33.478Z,1.47
2022-09-04T15:05:07.644Z,1.20
2022-09-04T15:07:52.690Z,1.35
2022-09-04T15:10:26.075Z,0.90
2022-09-04T15:13:05.629Z,1.08
2022-09-04T15:15:39.599Z,0.93
2022-09-04T15:18:15.946Z,0.90
2022-09-04T15:20:53.829Z,1.10
2022-09-04T15:23:28.113Z,1.05
2022-09-04T15:26:05.201Z,0.70
2022-09-04T15:28:40.033Z,1.40
2022-09-04T15:31:15.917Z,1.42
2022-09-04T15:33:46.871Z,1.33
2022-09-04T15:36:20.976Z,1.27
2022-09-04T15:38:53.586Z,1.10
2022-09-04T15:41:27.795Z,1.13
2022-09-04T15:44:02.386Z,1.10
2022-09-04T15:46:42.848Z,1.30
2022-09-04T15:49:22.239Z,1.02
2022-09-04T15:51:56.298Z,1.15
2022-09-04T15:54:31.144Z,0.90
2022-09-04T15:57:04.350Z,1.27
2022-09-04T15:59:40.379Z,0.93
2022-09-04T16:02:19.681Z,1.00
2022-09-04T16:04:59.949Z,0.90
2022-09-04T16:07:39.946Z,1.37
2022-09-04T16:10:16.671Z,1.10
2022-09-04T16:12:53.210Z,1.30
2022-09-04T16:15:27.028Z,1.27
2022-09-04T16:17:56.622Z,7.05
2022-09-04T16:20:34.152Z,3.23
2022-09-04T16:23:08.506Z,1.73
2022-09-04T16:25:39.620Z,1.45
2022-09-04T16:28:12.372Z,1.20
2022-09-04T16:30:42.707Z,1.50
2022-09-04T16:33:28.078Z,1.60
2022-09-04T16:36:01.219Z,1.55
2022-09-04T16:38:35.474Z,1.42
2022-09-04T16:41:10.345Z,1.85
2022-09-04T16:43:39.521Z,1.40
2022-09-04T16:46:13.815Z,1.50
2022-09-04T16:48:49.573Z,1.10
2022-09-04T16:51:40.562Z,1.13
2022-09-04T16:54:18.250Z,1.15
2022-09-04T16:56:50.329Z,1.52
2022-09-04T16:59:31.231Z,1.87
2022-09-04T17:02:02.743Z,1.95
2022-09-04T17:04:40.279Z,2.53
2022-09-04T17:07:19.238Z,2.60
2022-09-04T17:09:57.761Z,2.60
2022-09-04T17:12:38.036Z,2.30
2022-09-04T17:15:13.722Z,2.50
2022-09-04T17:17:43.720Z,2.60
2022-09-04T17:20:13.541Z,2.60
2022-09-04T17:28:54.267Z,3.28
2022-09-04T17:29:13.813Z,3.10
2022-09-04T17:29:29.609Z,3.28
2022-09-04T17:31:45.706Z,2.90
2022-09-04T17:40:42.211Z,2.42
2022-09-04T17:40:49.396Z,20.80
2022-09-04T17:40:50.437Z,4.28
2022-09-04T17:43:23.009Z,33.42
2022-09-04T17:46:06.832Z,31.08
2022-09-04T17:48:40.977Z,25.27
2022-09-04T17:51:09.456Z,16.25
2022-09-04T17:53:46.955Z,12.07
2022-09-04T17:56:21.093Z,9.20
2022-09-04T17:58:55.341Z,5.38
2022-09-04T18:01:26.768Z,4.53
2022-09-04T18:04:21.599Z,5.20
2022-09-04T18:06:56.298Z,7.47
2022-09-04T18:09:28.558Z,8.77
2022-09-04T18:12:11.034Z,10.32
2022-09-04T18:14:55.628Z,8.57
2022-09-04T18:17:40.537Z,5.53
2022-09-04T18:20:19.115Z,4.47
2022-09-04T18:23:02.971Z,3.58
2022-09-04T18:25:36.057Z,3.45
2022-09-04T18:28:12.427Z,3.55
2022-09-04T18:37:12.112Z,2.90
2022-09-04T18:37:19.444Z,3.93
2022-09-04T18:37:22.287Z,3.67
2022-09-04T18:39:41.967Z,3.88
2022-09-04T18:50:23.363Z,2.97
2022-09-04T18:50:40.574Z,3.08
2022-09-04T18:50:51.443Z,3.50
2022-09-04T18:53:47.077Z,3.40
2022-09-04T18:56:18.057Z,2.70
2022-09-04T18:58:55.837Z,2.80
2022-09-04T19:01:29.598Z,2.33
2022-09-04T19:04:21.269Z,2.85
2022-09-04T19:07:06.896Z,2.97
2022-09-04T19:09:55.896Z,3.45
2022-09-04T19:12:46.953Z,3.60
2022-09-04T19:15:37.145Z,3.27
2022-09-04T19:18:14.173Z,3.20
2022-09-04T19:20:48.400Z,3.10
2022-09-04T19:23:25.758Z,2.67
2022-09-04T19:25:57.525Z,2.67
2022-09-04T19:28:39.447Z,2.40
2022-09-04T19:31:16.915Z,2.72
2022-09-04T19:33:49.391Z,2.47
2022-09-04T19:36:25.916Z,2.50
2022-09-04T19:45:54.592Z,2.83
2022-09-04T19:46:02.153Z,2.78
2022-09-04T19:46:08.504Z,2.30
2022-09-04T19:48:01.142Z,2.72
2022-09-04T19:53:22.503Z,3.10
2022-09-04T19:53:42.366Z,2.70
2022-09-04T19:56:26.825Z,2.60
2022-09-04T19:58:58.421Z,2.40
2022-09-04T20:01:31.770Z,3.17
2022-09-04T20:04:05.327Z,2.90
2022-09-04T20:06:37.804Z,2.50
2022-09-04T20:09:13.725Z,2.30
2022-09-04T20:11:46.709Z,2.30
2022-09-04T20:14:24.522Z,2.40
2022-09-04T20:17:02.777Z,2.60
2022-09-04T20:19:39.404Z,2.70
2022-09-04T20:22:17.222Z,2.90
2022-09-04T20:25:01.605Z,2.83
2022-09-04T20:27:35.329Z,3.10
2022-09-04T20:30:08.708Z,2.95
2022-09-04T20:32:43.531Z,2.92
2022-09-04T20:35:33.341Z,2.90
2022-09-04T20:38:23.164Z,2.97
2022-09-04T20:40:57.073Z,2.40
2022-09-04T20:43:32.152Z,2.50
2022-09-04T20:52:44.078Z,2.85
2022-09-04T20:52:50.062Z,2.72
2022-09-04T20:52:59.845Z,2.57
2022-09-04T20:55:06.031Z,2.40
2022-09-04T21:03:13.650Z,2.85
2022-09-04T21:03:19.260Z,2.70
2022-09-04T21:03:52.263Z,2.90
2022-09-04T21:06:38.290Z,2.17
2022-09-04T21:09:22.525Z,2.30
2022-09-04T21:11:54.302Z,2.67
2022-09-04T21:14:45.105Z,2.47
2022-09-04T21:17:45.649Z,1.93
2022-09-04T21:20:36.324Z,2.60
2022-09-04T21:23:38.166Z,2.38
2022-09-04T21:26:20.319Z,2.10
2022-09-04T21:29:10.808Z,1.98
2022-09-04T21:32:01.354Z,2.13
2022-09-04T21:34:46.821Z,2.70
2022-09-04T21:37:22.798Z,2.50
2022-09-04T21:40:50.892Z,2.45
2022-09-04T21:43:44.922Z,1.83
2022-09-04T21:46:28.898Z,2.27
2022-09-04T21:49:26.743Z,2.50
2022-09-04T21:52:21.600Z,2.38
2022-09-04T21:57:47.042Z,2.15
2022-09-04T22:02:29.393Z,2.40
2022-09-04T22:02:41.329Z,2.30
2022-09-04T22:04:06.873Z,2.20
2022-09-04T22:08:31.860Z,2.38
2022-09-04T22:13:30.137Z,2.22
2022-09-04T22:13:33.557Z,2.28
2022-09-04T22:15:45.809Z,2.37
2022-09-04T22:18:35.243Z,2.20
2022-09-04T22:21:19.519Z,2.00
2022-09-04T22:24:09.035Z,1.90
2022-09-04T22:27:19.426Z,2.00
2022-09-04T22:30:06.042Z,1.83
2022-09-04T22:33:13.990Z,1.90
2022-09-04T22:36:17.871Z,2.10
2022-09-04T22:39:03.388Z,2.10
2022-09-04T22:42:03.036Z,1.95
2022-09-04T22:44:46.345Z,1.87
2022-09-04T22:47:29.132Z,2.33
2022-09-04T22:50:37.355Z,2.17
2022-09-04T22:53:42.087Z,2.28
2022-09-04T22:56:24.093Z,2.42
2022-09-04T22:59:27.788Z,2.30
2022-09-04T23:02:20.980Z,2.00
2022-09-04T23:05:05.663Z,2.30
2022-09-04T23:11:51.401Z,2.10
2022-09-04T23:13:47.121Z,2.30
2022-09-04T23:14:06.564Z,2.10
2022-09-04T23:16:58.596Z,2.30
2022-09-04T23:26:38.272Z,2.20
2022-09-04T23:26:42.068Z,1.90
2022-09-04T23:26:48.841Z,2.03
2022-09-04T23:29:21.389Z,2.37
2022-09-04T23:32:07.379Z,2.38
2022-09-04T23:35:13.615Z,2.30
2022-09-04T23:38:10.968Z,1.92
2022-09-04T23:40:44.705Z,2.00
2022-09-04T23:43:46.976Z,2.10
2022-09-04T23:46:33.308Z,2.15
2022-09-04T23:49:28.039Z,2.10
2022-09-04T23:52:04.373Z,2.42
2022-09-04T23:54:53.970Z,2.10
2022-09-04T23:57:28.362Z,2.30
